Time;durP1;ratioP1;P1;durP2;ratioP2;P2;SDS_P1;SDS_P2;PMS_P1;PMS_P2;Temp;Humidity;BMP_temperature;BMP_pressure;BME280_temperature;BME280_humidity;BME280_pressure;Samples;Min_cycle;Max_cycle;Signal;HPM_P1;HPM_P2
2021/03/24 00:00:25;;;;;;;27.30;13.63;;;4.90;99.90;;;;;;5040029;28;20037;-81
2021/03/24 00:02:54;;;;;;;26.30;13.25;;;4.80;99.90;;;;;;5041216;28;20034;-83
2021/03/24 00:05:22;;;;;;;26.25;13.65;;;4.80;99.90;;;;;;5023882;28;20053;-79
2021/03/24 00:07:48;;;;;;;29.58;14.15;;;;;;;;;;5026885;28;20040;-79
2021/03/24 00:10:14;;;;;;;27.38;14.30;;;4.70;99.90;;;;;;5024825;28;20037;-82
2021/03/24 00:12:40;;;;;;;24.60;13.77;;;4.60;99.90;;;;;;5027601;28;20057;-78
2021/03/24 00:15:10;;;;;;;28.88;14.95;;;4.70;99.90;;;;;;5026967;28;20049;-78
2021/03/24 00:17:36;;;;;;;28.92;14.63;;;;;;;;;;5024463;28;20033;-79
2021/03/24 00:20:06;;;;;;;27.42;13.85;;;4.60;99.90;;;;;;5039348;28;20128;-79
2021/03/24 00:22:31;;;;;;;30.45;14.10;;;4.60;99.90;;;;;;5043349;28;20033;-80
2021/03/24 00:24:57;;;;;;;30.73;15.00;;;4.60;99.90;;;;;;5028858;28;20028;-78
2021/03/24 00:27:22;;;;;;;29.92;14.75;;;4.60;99.90;;;;;;5025236;28;20063;-81
2021/03/24 00:29:48;;;;;;;27.02;14.52;;;4.60;99.90;;;;;;5028447;28;20140;-80
2021/03/24 00:32:14;;;;;;;26.80;12.32;;;4.60;99.90;;;;;;5027351;28;20427;-78
2021/03/24 00:34:39;;;;;;;24.42;12.90;;;4.60;99.90;;;;;;5027372;28;20120;-81
2021/03/24 00:37:05;;;;;;;24.90;12.48;;;4.50;99.90;;;;;;5027251;28;20038;-78
2021/03/24 00:39:31;;;;;;;27.27;13.80;;;4.50;99.90;;;;;;5028083;28;20034;-80
2021/03/24 00:41:57;;;;;;;26.98;14.13;;;;;;;;;;5025843;28;20095;-80
2021/03/24 00:44:23;;;;;;;24.75;13.18;;;4.40;99.90;;;;;;5028237;28;20029;-80
2021/03/24 00:46:49;;;;;;;25.10;13.50;;;4.40;99.90;;;;;;5038383;28;20114;-81
2021/03/24 00:49:16;;;;;;;27.52;14.93;;;;;;;;;;5026824;28;20029;-80
2021/03/24 00:51:41;;;;;;;25.88;13.63;;;4.30;99.90;;;;;;5027266;28;20068;-78
2021/03/24 00:54:07;;;;;;;27.02;14.50;;;;;;;;;;5029307;28;20037;-79
2021/03/24 00:56:33;;;;;;;27.42;13.75;;;;;;;;;;5025429;28;20140;-81
2021/03/24 00:59:01;;;;;;;27.48;14.73;;;;;;;;;;5022481;28;20039;-83
2021/03/24 01:01:27;;;;;;;29.45;14.27;;;4.20;99.90;;;;;;5028136;28;20041;-82
2021/03/24 01:03:53;;;;;;;27.15;13.23;;;;;;;;;;5028651;28;20026;-78
2021/03/24 01:06:19;;;;;;;25.50;13.60;;;4.10;99.90;;;;;;5041296;28;20021;-80
2021/03/24 01:08:44;;;;;;;29.02;14.90;;;4.10;99.90;;;;;;5027727;28;20086;-80
2021/03/24 01:11:10;;;;;;;27.17;14.50;;;3.90;99.90;;;;;;5025158;28;20112;-81
2021/03/24 01:13:35;;;;;;;32.58;14.25;;;4.00;99.90;;;;;;5039904;28;20029;-81
2021/03/24 01:16:01;;;;;;;26.83;14.30;;;4.10;99.90;;;;;;5021742;28;20025;-82
2021/03/24 01:18:26;;;;;;;28.25;14.07;;;4.00;99.90;;;;;;5026406;28;20083;-77
2021/03/24 01:20:53;;;;;;;25.25;12.63;;;3.90;99.90;;;;;;5044665;28;20026;-80
2021/03/24 01:23:19;;;;;;;28.90;13.90;;;3.90;99.90;;;;;;5031138;28;20098;-81
2021/03/24 01:25:44;;;;;;;30.40;13.40;;;3.90;99.90;;;;;;5027532;28;20202;-77
2021/03/24 01:28:24;;;;;;;24.52;12.35;;;3.90;99.90;;;;;;5023487;28;20022;-79
2021/03/24 01:30:50;;;;;;;25.70;12.95;;;;;;;;;;5025732;28;20037;-80
2021/03/24 01:33:16;;;;;;;25.02;13.45;;;3.90;99.90;;;;;;5043583;28;20030;-78
2021/03/24 01:35:42;;;;;;;28.02;12.85;;;3.90;99.90;;;;;;5024935;28;20041;-81
2021/03/24 01:38:08;;;;;;;25.95;13.23;;;3.90;99.90;;;;;;5021309;28;20071;-79
2021/03/24 01:40:43;;;;;;;26.05;13.55;;;3.80;99.90;;;;;;5041457;28;20044;-79
2021/03/24 01:43:24;;;;;;;24.50;12.73;;;3.90;99.90;;;;;;5025911;28;20028;-80
2021/03/24 01:46:15;;;;;;;26.38;13.20;;;3.90;99.90;;;;;;5025308;28;20065;-80
2021/03/24 01:48:41;;;;;;;28.45;13.90;;;3.90;99.90;;;;;;5039108;28;20038;-84
2021/03/24 01:51:07;;;;;;;24.83;13.32;;;3.80;99.90;;;;;;5026908;28;20024;-78
2021/03/24 01:53:35;;;;;;;26.83;13.43;;;3.80;99.90;;;;;;5023469;28;20586;-79
2021/03/24 01:56:03;;;;;;;31.63;15.18;;;3.70;99.90;;;;;;5028067;28;20076;-79
2021/03/24 01:58:30;;;;;;;28.77;14.00;;;;;;;;;;5027603;28;20049;-81
2021/03/24 02:00:56;;;;;;;35.10;16.02;;;3.70;99.90;;;;;;5025717;28;20510;-82
2021/03/24 02:03:24;;;;;;;25.55;12.88;;;3.60;99.90;;;;;;5019895;28;20220;-81
2021/03/24 02:05:50;;;;;;;32.28;15.70;;;3.60;99.90;;;;;;5021982;28;20121;-79
2021/03/24 02:08:22;;;;;;;30.92;15.55;;;5.00;99.90;;;;;;5026888;28;20079;-80
2021/03/24 02:10:54;;;;;;;33.50;14.80;;;;;;;;;;5028258;28;20030;-79
2021/03/24 02:13:34;;;;;;;32.85;13.35;;;3.60;99.90;;;;;;5028765;28;20064;-80
2021/03/24 02:16:20;;;;;;;28.60;14.10;;;3.60;99.90;;;;;;5028494;28;20037;-79
2021/03/24 02:18:49;;;;;;;29.63;15.05;;;3.50;99.90;;;;;;5027945;28;20033;-81
2021/03/24 02:21:24;;;;;;;32.15;16.08;;;3.50;99.90;;;;;;5026944;28;20022;-78
2021/03/24 02:24:12;;;;;;;34.53;15.48;;;3.50;99.90;;;;;;5028236;28;20026;-81
2021/03/24 02:27:13;;;;;;;36.38;16.35;;;3.50;99.90;;;;;;5042561;28;20026;-80
2021/03/24 02:29:47;;;;;;;33.55;16.50;;;3.50;99.90;;;;;;5023982;28;21093;-81
2021/03/24 02:32:15;;;;;;;34.58;16.52;;;3.50;99.90;;;;;;5029200;28;20038;-81
2021/03/24 02:34:43;;;;;;;35.17;17.17;;;3.50;99.90;;;;;;5031684;28;20041;-79
2021/03/24 02:37:11;;;;;;;30.73;15.65;;;3.40;99.90;;;;;;5029634;28;20040;-81
2021/03/24 02:39:40;;;;;;;34.97;17.13;;;3.40;99.90;;;;;;5025246;28;20048;-80
2021/03/24 02:42:08;;;;;;;30.70;16.52;;;3.40;99.90;;;;;;5029508;28;20571;-80
2021/03/24 02:44:35;;;;;;;27.90;14.30;;;3.40;99.90;;;;;;5029405;28;20101;-81
2021/03/24 02:47:04;;;;;;;29.35;12.20;;;3.40;99.90;;;;;;5023390;28;20480;-80
2021/03/24 02:49:31;;;;;;;23.83;12.07;;;3.30;99.90;;;;;;5031892;28;20405;-79
2021/03/24 02:51:57;;;;;;;25.30;13.55;;;3.30;99.90;;;;;;5030918;28;20025;-78
2021/03/24 02:54:27;;;;;;;29.02;13.75;;;3.20;99.90;;;;;;5032851;28;20029;-79
2021/03/24 02:56:53;;;;;;;26.83;14.52;;;3.20;99.90;;;;;;5027668;28;20034;-79
2021/03/24 02:59:18;;;;;;;30.17;13.73;;;3.50;99.90;;;;;;5031269;28;20450;-83
2021/03/24 03:01:56;;;;;;;30.52;15.02;;;3.10;99.90;;;;;;5032592;28;20026;-81
2021/03/24 03:04:33;;;;;;;30.88;14.70;;;3.10;99.90;;;;;;5035086;28;20025;-80
2021/03/24 03:07:02;;;;;;;30.77;15.25;;;3.10;99.90;;;;;;5049332;28;20033;-83
2021/03/24 03:09:48;;;;;;;33.70;14.60;;;3.10;99.90;;;;;;5042195;28;20277;-80
2021/03/24 03:12:35;;;;;;;32.25;14.57;;;3.10;99.90;;;;;;5030581;28;20083;-79
2021/03/24 03:15:07;;;;;;;27.73;13.57;;;3.10;99.90;;;;;;5044272;28;20488;-82
2021/03/24 03:17:44;;;;;;;26.83;13.70;;;3.00;99.90;;;;;;5026700;28;20026;-80
2021/03/24 03:20:15;;;;;;;28.17;13.57;;;3.00;99.90;;;;;;5028580;28;20183;-81
2021/03/24 03:22:49;;;;;;;25.60;13.05;;;3.00;99.90;;;;;;5033018;28;20025;-81
2021/03/24 03:25:20;;;;;;;30.33;13.60;;;2.90;99.90;;;;;;5032887;28;20101;-78
2021/03/24 03:27:48;;;;;;;27.98;13.35;;;2.90;99.90;;;;;;5043528;28;20120;-80
2021/03/24 03:30:17;;;;;;;27.77;14.27;;;2.90;99.90;;;;;;5025577;28;20025;-79
2021/03/24 03:32:45;;;;;;;29.23;14.23;;;2.90;99.90;;;;;;5026121;28;20049;-80
2021/03/24 03:35:15;;;;;;;29.73;14.70;;;2.90;99.90;;;;;;5029782;28;20033;-81
2021/03/24 03:37:41;;;;;;;28.95;13.93;;;2.90;99.90;;;;;;5030407;28;20466;-79
2021/03/24 03:40:16;;;;;;;28.65;14.77;;;2.90;99.90;;;;;;5030745;28;20108;-80
2021/03/24 03:42:43;;;;;;;31.67;14.48;;;2.80;99.90;;;;;;5042349;28;20395;-80
2021/03/24 03:45:10;;;;;;;28.05;13.77;;;2.80;99.90;;;;;;5042882;28;20021;-80
2021/03/24 03:47:38;;;;;;;30.83;14.35;;;2.80;99.90;;;;;;5031078;28;20412;-81
2021/03/24 03:50:06;;;;;;;28.00;14.10;;;2.80;99.90;;;;;;5035158;28;20025;-80
2021/03/24 03:52:45;;;;;;;30.25;14.98;;;2.80;99.90;;;;;;5032420;28;20033;-78
2021/03/24 03:55:29;;;;;;;27.02;13.82;;;2.80;99.90;;;;;;5028903;28;20048;-78
2021/03/24 03:57:58;;;;;;;29.80;14.95;;;2.80;99.90;;;;;;5047312;28;20499;-79
2021/03/24 04:00:31;;;;;;;31.23;15.57;;;2.80;99.90;;;;;;5030124;28;20156;-78
2021/03/24 04:03:12;;;;;;;33.80;14.98;;;2.80;99.90;;;;;;5037380;28;20040;-78
2021/03/24 04:05:53;;;;;;;37.08;18.27;;;2.80;99.90;;;;;;5032055;28;20554;-80
2021/03/24 04:08:27;;;;;;;39.50;18.10;;;3.90;99.90;;;;;;5042065;28;20037;-78
2021/03/24 04:10:56;;;;;;;43.55;19.45;;;2.70;99.90;;;;;;5030832;28;20040;-79
2021/03/24 04:13:25;;;;;;;38.90;19.40;;;2.70;99.90;;;;;;5041563;28;20108;-78
2021/03/24 04:15:56;;;;;;;34.03;17.15;;;2.70;99.90;;;;;;5031017;28;20025;-82
2021/03/24 04:18:52;;;;;;;37.38;18.17;;;2.70;99.90;;;;;;5034341;28;20039;-79
2021/03/24 04:21:20;;;;;;;32.70;15.85;;;2.70;99.90;;;;;;5029928;28;20037;-79
2021/03/24 04:23:51;;;;;;;39.08;18.13;;;2.70;99.90;;;;;;5036296;28;20044;-78
2021/03/24 04:26:23;;;;;;;35.88;17.65;;;2.70;99.90;;;;;;5032885;28;20076;-79
2021/03/24 04:28:52;;;;;;;38.55;17.40;;;2.70;99.90;;;;;;5036463;28;20025;-79
2021/03/24 04:31:22;;;;;;;34.60;17.23;;;2.60;99.90;;;;;;5029209;28;20037;-80
2021/03/24 04:33:48;;;;;;;36.20;16.27;;;2.60;99.90;;;;;;5028370;28;20049;-79
2021/03/24 04:36:26;;;;;;;38.28;17.83;;;2.50;99.90;;;;;;5041181;28;20061;-83
2021/03/24 04:39:01;;;;;;;36.55;18.08;;;2.50;99.90;;;;;;5024999;28;20159;-80
2021/03/24 04:41:36;;;;;;;36.03;16.60;;;2.50;99.90;;;;;;5025273;28;20034;-81
2021/03/24 04:44:06;;;;;;;35.70;16.35;;;2.40;99.90;;;;;;5026411;28;20367;-79
2021/03/24 04:46:39;;;;;;;31.35;14.85;;;2.30;99.90;;;;;;5030773;28;20483;-78
2021/03/24 04:49:26;;;;;;;34.65;16.40;;;2.30;99.90;;;;;;5029548;28;20029;-78
2021/03/24 04:51:54;;;;;;;33.25;15.73;;;2.40;99.90;;;;;;5033519;28;20116;-78
2021/03/24 04:54:32;;;;;;;30.05;14.55;;;2.40;99.90;;;;;;5030464;28;20029;-78
2021/03/24 04:57:12;;;;;;;28.20;13.73;;;2.40;99.90;;;;;;5028284;28;20038;-81
2021/03/24 04:59:41;;;;;;;34.08;15.90;;;2.40;99.90;;;;;;5029858;28;20048;-82
2021/03/24 05:02:12;;;;;;;32.85;15.63;;;2.40;99.90;;;;;;5029724;28;20102;-80
2021/03/24 05:04:39;;;;;;;34.00;14.60;;;2.40;99.90;;;;;;5047223;28;20029;-80
2021/03/24 05:07:07;;;;;;;32.13;15.43;;;2.40;99.90;;;;;;5038744;28;20101;-79
2021/03/24 05:09:34;;;;;;;32.25;16.38;;;;;;;;;;5048412;28;20029;-80
2021/03/24 05:12:06;;;;;;;36.28;15.88;;;2.50;99.90;;;;;;5044208;28;20032;-80
2021/03/24 05:14:50;;;;;;;36.53;17.17;;;2.50;99.90;;;;;;5035668;28;20021;-80
2021/03/24 05:17:18;;;;;;;34.38;16.52;;;2.50;99.90;;;;;;5032092;28;20095;-80
2021/03/24 05:19:46;;;;;;;34.67;15.43;;;2.50;99.90;;;;;;5032707;28;20168;-80
2021/03/24 05:22:26;;;;;;;33.78;16.85;;;2.50;99.90;;;;;;5035507;28;20029;-79
2021/03/24 05:25:15;;;;;;;33.40;14.98;;;2.50;99.90;;;;;;5032781;28;20507;-79
2021/03/24 05:27:48;;;;;;;34.80;15.70;;;2.50;99.90;;;;;;5027636;28;20055;-79
2021/03/24 05:30:25;;;;;;;36.83;15.82;;;2.50;99.90;;;;;;5029424;28;20116;-83
2021/03/24 05:33:02;;;;;;;31.63;14.45;;;2.50;99.90;;;;;;5036415;28;20033;-80
2021/03/24 05:35:50;;;;;;;28.75;14.68;;;2.50;99.90;;;;;;5035326;28;20037;-78
2021/03/24 05:38:23;;;;;;;29.55;15.02;;;2.50;99.90;;;;;;5049172;28;20115;-84
2021/03/24 05:41:16;;;;;;;32.15;16.08;;;2.50;99.90;;;;;;5037665;28;20060;-81
2021/03/24 05:43:59;;;;;;;29.73;14.38;;;2.50;99.90;;;;;;5033485;28;20526;-78
2021/03/24 05:46:44;;;;;;;29.10;14.75;;;2.50;99.90;;;;;;5052026;28;20021;-80
2021/03/24 05:49:30;;;;;;;31.70;15.10;;;2.50;99.90;;;;;;5036518;28;20025;-80
2021/03/24 05:51:59;;;;;;;31.75;15.75;;;2.40;99.90;;;;;;5031435;28;20045;-76
2021/03/24 05:54:32;;;;;;;32.00;15.85;;;2.50;99.90;;;;;;5036072;28;20484;-79
2021/03/24 05:57:03;;;;;;;32.95;16.13;;;2.40;99.90;;;;;;5033684;28;20034;-80
2021/03/24 05:59:53;;;;;;;33.00;16.13;;;2.40;99.90;;;;;;5058664;28;20033;-78
2021/03/24 06:02:31;;;;;;;34.15;15.88;;;2.50;99.90;;;;;;5039425;28;20025;-81
2021/03/24 06:05:32;;;;;;;32.08;16.60;;;2.50;99.90;;;;;;5055726;28;20028;-80
2021/03/24 06:08:30;;;;;;;34.13;16.92;;;2.50;99.90;;;;;;5037459;28;20026;-82
2021/03/24 06:11:22;;;;;;;38.17;17.50;;;2.60;99.90;;;;;;5034605;28;20049;-80
2021/03/24 06:14:17;;;;;;;33.75;17.00;;;2.50;99.90;;;;;;5049218;28;20037;-81
2021/03/24 06:17:20;;;;;;;35.65;16.88;;;2.40;99.90;;;;;;5030429;28;20034;-82
2021/03/24 06:20:07;;;;;;;35.60;17.00;;;2.50;99.90;;;;;;5030060;28;20034;-81
2021/03/24 06:23:10;;;;;;;38.78;18.75;;;2.50;99.90;;;;;;5030931;28;20115;-83
2021/03/24 06:25:44;;;;;;;35.55;17.10;;;2.60;99.90;;;;;;5033205;28;20037;-80
2021/03/24 06:28:24;;;;;;;34.45;17.10;;;2.60;99.90;;;;;;5026082;28;20104;-81
2021/03/24 06:31:27;;;;;;;33.83;15.93;;;2.70;99.90;;;;;;5048650;28;20044;-82
2021/03/24 06:34:35;;;;;;;31.88;15.88;;;2.80;99.90;;;;;;5049888;28;20037;-80
2021/03/24 06:37:22;;;;;;;36.15;21.73;;;3.00;99.90;;;;;;5033736;28;20033;-77
2021/03/24 06:40:02;;;;;;;38.30;16.73;;;3.00;99.90;;;;;;5045997;28;20025;-79
2021/03/24 06:42:37;;;;;;;31.80;16.05;;;3.10;99.90;;;;;;5023598;28;20049;-79
2021/03/24 06:45:32;;;;;;;36.55;17.33;;;3.20;99.90;;;;;;5026526;28;20030;-81
2021/03/24 06:48:12;;;;;;;34.58;17.27;;;3.30;99.90;;;;;;5002138;28;20033;-79
2021/03/24 06:50:53;;;;;;;40.80;16.83;;;3.30;99.90;;;;;;5024341;28;20033;-79
2021/03/24 06:53:55;;;;;;;35.95;17.27;;;3.30;99.90;;;;;;5044315;28;20033;-80
2021/03/24 06:56:39;;;;;;;35.25;15.63;;;3.20;99.90;;;;;;5040877;28;20056;-80
2021/03/24 06:59:18;;;;;;;34.13;16.35;;;3.40;99.90;;;;;;5025568;28;20036;-81
2021/03/24 07:01:59;;;;;;;44.75;21.88;;;3.40;99.90;;;;;;5028633;28;20117;-79
2021/03/24 07:04:51;;;;;;;36.28;18.02;;;3.50;99.90;;;;;;5046700;28;20021;-79
2021/03/24 07:07:44;;;;;;;35.70;17.33;;;3.60;99.90;;;;;;5026873;28;20037;-78
2021/03/24 07:10:31;;;;;;;32.58;16.05;;;3.80;99.90;;;;;;5025609;28;20041;-78
2021/03/24 07:13:47;;;;;;;36.88;16.45;;;3.90;99.90;;;;;;5022419;28;20026;-79
2021/03/24 07:16:38;;;;;;;34.38;16.95;;;4.40;99.90;;;;;;5020149;28;20025;-78
2021/03/24 07:19:47;;;;;;;38.85;18.90;;;4.30;99.90;;;;;;5036911;28;20033;-79
2021/03/24 07:22:20;;;;;;;33.90;17.27;;;4.30;99.90;;;;;;5024422;28;20032;-77
2021/03/24 07:24:53;;;;;;;39.78;18.50;;;4.30;99.90;;;;;;5021490;28;20816;-80
2021/03/24 07:28:07;;;;;;;35.42;18.48;;;4.50;99.90;;;;;;5019345;28;20029;-79
2021/03/24 07:30:55;;;;;;;43.58;19.27;;;4.60;99.90;;;;;;5021913;28;20071;-78
2021/03/24 07:33:30;;;;;;;41.08;18.30;;;4.70;99.90;;;;;;5037736;28;20040;-81
2021/03/24 07:36:24;;;;;;;36.97;18.52;;;4.80;99.90;;;;;;5022633;28;20025;-82
2021/03/24 07:39:27;;;;;;;39.35;17.70;;;4.70;99.90;;;;;;5045927;28;20083;-78
2021/03/24 07:42:29;;;;;;;34.80;17.88;;;4.90;99.90;;;;;;5021305;28;20440;-81
2021/03/24 07:45:21;;;;;;;42.67;17.92;;;5.00;99.90;;;;;;5025347;28;20029;-81
2021/03/24 07:48:11;;;;;;;40.92;18.05;;;5.80;99.90;;;;;;5031762;28;20036;-79
2021/03/24 07:50:47;;;;;;;37.35;18.38;;;5.40;99.80;;;;;;5043125;28;20044;-80
2021/03/24 07:53:46;;;;;;;36.63;18.23;;;5.60;99.30;;;;;;5031613;28;20029;-80
2021/03/24 07:56:40;;;;;;;36.75;17.17;;;5.60;99.10;;;;;;5029998;28;20144;-79
2021/03/24 07:59:23;;;;;;;32.50;16.80;;;5.70;99.00;;;;;;5033579;28;20029;-79
2021/03/24 08:02:21;;;;;;;35.25;16.20;;;6.00;99.90;;;;;;5042825;28;20060;-79
2021/03/24 08:05:23;;;;;;;32.00;17.08;;;6.10;98.50;;;;;;5038958;28;20551;-79
2021/03/24 08:08:09;;;;;;;34.58;16.60;;;6.30;98.10;;;;;;5027311;28;20076;-81
2021/03/24 08:11:02;;;;;;;34.35;16.98;;;6.40;97.80;;;;;;5046734;28;20748;-80
2021/03/24 08:13:45;;;;;;;31.67;16.45;;;6.60;97.60;;;;;;5024336;28;20062;-84
2021/03/24 08:16:36;;;;;;;31.58;16.15;;;7.00;96.80;;;;;;5041533;28;20033;-78
2021/03/24 08:19:32;;;;;;;32.72;15.55;;;7.10;96.30;;;;;;5029557;28;20447;-81
2021/03/24 08:22:24;;;;;;;28.75;15.57;;;7.10;96.60;;;;;;5046070;28;20096;-79
2021/03/24 08:25:11;;;;;;;26.85;14.55;;;7.40;95.30;;;;;;5032637;28;20025;-80
2021/03/24 08:28:00;;;;;;;29.70;15.73;;;7.40;95.50;;;;;;5043241;28;20099;-77
2021/03/24 08:30:45;;;;;;;25.95;14.27;;;7.50;95.20;;;;;;5018281;28;20060;-84
2021/03/24 08:33:23;;;;;;;29.17;15.15;;;7.50;95.60;;;;;;5026381;28;20452;-79
2021/03/24 08:36:10;;;;;;;28.05;15.50;;;7.80;95.40;;;;;;5047001;28;20048;-82
2021/03/24 08:38:40;;;;;;;28.33;14.68;;;8.10;94.90;;;;;;5046536;28;20033;-78
2021/03/24 08:41:06;;;;;;;27.33;15.07;;;8.20;94.80;;;;;;5046194;28;20057;-79
2021/03/24 08:44:02;;;;;;;24.85;14.60;;;8.60;93.10;;;;;;5048657;28;20037;-83
2021/03/24 08:46:54;;;;;;;25.65;13.63;;;8.80;93.00;;;;;;5044247;28;20034;-78
2021/03/24 08:49:32;;;;;;;23.08;12.77;;;9.00;92.30;;;;;;5026661;28;20048;-80
2021/03/24 08:52:11;;;;;;;26.40;14.50;;;9.10;92.50;;;;;;5022999;28;20467;-81
2021/03/24 08:54:59;;;;;;;25.23;13.30;;;9.10;91.70;;;;;;5008539;28;20479;-78
2021/03/24 08:57:59;;;;;;;28.98;14.48;;;9.40;91.20;;;;;;5025603;28;20327;-84
2021/03/24 09:00:53;;;;;;;24.65;12.98;;;9.20;91.50;;;;;;5018916;28;20032;-81
2021/03/24 09:03:19;;;;;;;27.42;13.02;;;;;;;;;;5023428;28;20029;-81
2021/03/24 09:06:13;;;;;;;25.00;13.57;;;9.60;91.20;;;;;;5021310;28;20048;-85
2021/03/24 09:09:06;;;;;;;24.30;12.90;;;;;;;;;;5034987;28;20093;-81
2021/03/24 09:11:44;;;;;;;23.67;12.32;;;10.20;89.30;;;;;;5014669;28;20037;-79
2021/03/24 09:14:26;;;;;;;25.42;11.80;;;10.40;87.30;;;;;;5039249;28;20076;-82
2021/03/24 09:17:03;;;;;;;26.73;13.35;;;10.30;88.00;;;;;;5038458;28;20406;-81
2021/03/24 09:20:02;;;;;;;25.90;12.20;;;;;;;;;;5021650;28;20506;-78
2021/03/24 09:22:50;;;;;;;31.70;12.93;;;10.60;86.90;;;;;;5037863;28;20057;-81
2021/03/24 09:25:32;;;;;;;31.25;12.27;;;10.70;86.80;;;;;;5019755;28;20022;-79
2021/03/24 09:28:07;;;;;;;26.08;11.95;;;10.90;85.00;;;;;;5035580;28;20032;-79
2021/03/24 09:30:42;;;;;;;22.45;11.50;;;11.00;83.80;;;;;;5025284;28;20025;-80
2021/03/24 09:33:37;;;;;;;27.88;12.13;;;11.10;84.20;;;;;;5020165;28;20036;-79
2021/03/24 09:36:39;;;;;;;23.23;11.15;;;11.10;83.70;;;;;;5021549;28;20033;-79
2021/03/24 09:39:18;;;;;;;24.63;12.13;;;11.20;83.10;;;;;;5023795;28;20030;-80
2021/03/24 09:41:50;;;;;;;20.88;12.35;;;11.30;83.00;;;;;;5020879;28;20056;-79
2021/03/24 09:44:27;;;;;;;21.23;12.13;;;11.50;82.10;;;;;;5033915;28;20396;-81
2021/03/24 09:46:54;;;;;;;22.50;12.77;;;11.40;81.10;;;;;;5024384;28;20025;-80
2021/03/24 09:49:36;;;;;;;24.50;12.40;;;11.40;81.80;;;;;;5022441;28;20030;-78
2021/03/24 09:52:25;;;;;;;19.10;12.52;;;11.40;82.80;;;;;;5016213;28;20125;-78
2021/03/24 09:55:03;;;;;;;22.35;12.00;;;11.70;81.50;;;;;;5016087;28;21080;-80
2021/03/24 09:57:52;;;;;;;24.25;11.60;;;11.90;80.40;;;;;;5017719;28;20057;-80
2021/03/24 10:00:19;;;;;;;21.17;12.10;;;12.00;79.00;;;;;;5000339;28;20049;-81
2021/03/24 10:02:53;;;;;;;23.30;13.13;;;12.00;78.90;;;;;;5023669;28;20053;-81
2021/03/24 10:05:30;;;;;;;23.05;13.38;;;12.20;79.00;;;;;;5035179;28;20044;-82
2021/03/24 10:08:02;;;;;;;24.10;12.90;;;12.40;76.70;;;;;;5019058;28;20106;-79
2021/03/24 10:10:33;;;;;;;24.25;12.48;;;12.50;76.60;;;;;;5016956;28;20437;-80
2021/03/24 10:13:13;;;;;;;24.30;12.82;;;12.70;75.80;;;;;;5018815;28;20037;-79
2021/03/24 10:15:50;;;;;;;22.95;12.18;;;12.50;79.10;;;;;;5014921;28;20056;-79
2021/03/24 10:18:28;;;;;;;18.92;11.75;;;12.50;74.10;;;;;;5022840;28;20026;-78
2021/03/24 10:21:18;;;;;;;20.65;12.13;;;12.70;74.30;;;;;;5021363;28;20044;-80
2021/03/24 10:24:10;;;;;;;22.65;12.30;;;13.00;74.60;;;;;;5029875;28;20403;-79
2021/03/24 10:26:54;;;;;;;20.67;11.80;;;13.30;70.30;;;;;;5026750;28;20541;-81
2021/03/24 10:29:28;;;;;;;20.48;12.15;;;13.30;70.50;;;;;;5029984;28;20029;-79
2021/03/24 10:32:26;;;;;;;20.95;12.48;;;13.40;69.60;;;;;;5031546;28;20069;-80
2021/03/24 10:35:11;;;;;;;23.08;12.38;;;13.50;69.30;;;;;;5029837;28;20056;-79
2021/03/24 10:37:44;;;;;;;24.00;13.57;;;13.50;68.00;;;;;;5043826;28;20026;-79
2021/03/24 10:40:21;;;;;;;22.90;12.27;;;13.70;68.80;;;;;;5027716;28;20149;-80
2021/03/24 10:42:58;;;;;;;24.17;13.10;;;13.60;69.10;;;;;;5028761;28;20022;-80
2021/03/24 10:45:31;;;;;;;21.40;12.27;;;13.80;66.40;;;;;;5027516;28;20030;-82
2021/03/24 10:48:13;;;;;;;25.90;12.82;;;14.00;64.70;;;;;;5028742;28;20021;-79
2021/03/24 10:51:11;;;;;;;24.63;13.10;;;14.00;65.40;;;;;;5021729;28;20499;-78
2021/03/24 10:53:37;;;;;;;22.20;11.85;;;14.10;64.70;;;;;;5025908;28;20531;-80
2021/03/24 10:56:27;;;;;;;23.23;12.65;;;14.20;64.40;;;;;;5042587;28;20045;-81
2021/03/24 10:59:14;;;;;;;19.45;12.40;;;14.10;63.30;;;;;;5031863;28;20025;-78
2021/03/24 11:01:48;;;;;;;22.25;12.20;;;14.10;62.80;;;;;;5044575;28;20037;-79
2021/03/24 11:04:42;;;;;;;24.40;12.48;;;14.20;62.40;;;;;;5048888;28;20054;-80
2021/03/24 11:07:42;;;;;;;22.90;11.77;;;14.20;61.80;;;;;;5043983;28;20034;-79
2021/03/24 11:10:11;;;;;;;25.57;13.10;;;14.40;61.20;;;;;;5047533;28;20026;-79
2021/03/24 11:12:48;;;;;;;22.10;13.18;;;14.40;61.10;;;;;;5026554;28;20031;-79
2021/03/24 11:15:21;;;;;;;23.67;12.40;;;14.40;60.30;;;;;;5031402;28;20021;-79
2021/03/24 11:17:56;;;;;;;22.35;12.43;;;14.50;60.30;;;;;;5035368;28;20029;-78
2021/03/24 11:20:53;;;;;;;25.13;12.90;;;14.60;60.00;;;;;;5030069;28;21277;-80
2021/03/24 11:23:42;;;;;;;21.67;11.40;;;14.60;59.90;;;;;;5024150;28;20033;-78
2021/03/24 11:26:35;;;;;;;22.50;12.07;;;15.00;58.60;;;;;;5027142;28;20125;-79
2021/03/24 11:29:04;;;;;;;25.15;11.98;;;15.10;56.80;;;;;;5027670;28;20129;-78
2021/03/24 11:31:51;;;;;;;24.02;12.15;;;15.10;57.20;;;;;;5027038;28;20034;-80
2021/03/24 11:34:29;;;;;;;22.50;11.50;;;15.10;55.80;;;;;;5029228;28;20288;-79
2021/03/24 11:37:11;;;;;;;23.58;12.43;;;14.90;55.90;;;;;;5029474;28;20025;-79
2021/03/24 11:39:47;;;;;;;21.42;11.40;;;15.00;56.80;;;;;;5031620;28;20400;-79
2021/03/24 11:42:19;;;;;;;23.77;13.13;;;15.10;57.40;;;;;;5029068;28;20484;-78
2021/03/24 11:44:47;;;;;;;21.55;12.57;;;16.50;56.30;;;;;;5031699;28;20033;-80
2021/03/24 11:47:31;;;;;;;21.35;11.95;;;15.20;56.70;;;;;;5029648;28;20408;-79
2021/03/24 11:50:06;;;;;;;22.58;11.57;;;15.30;55.00;;;;;;5034382;28;20029;-77
2021/03/24 11:53:03;;;;;;;19.13;10.90;;;15.50;54.40;;;;;;5030510;28;20029;-78
2021/03/24 11:55:46;;;;;;;21.98;11.90;;;15.60;55.00;;;;;;5047169;28;20036;-78
2021/03/24 11:58:18;;;;;;;22.65;12.15;;;15.60;53.50;;;;;;5028140;28;20037;-79
2021/03/24 12:00:52;;;;;;;21.70;12.38;;;15.60;53.00;;;;;;5030381;28;20035;-77
2021/03/24 12:03:39;;;;;;;22.80;12.52;;;15.60;53.60;;;;;;5032986;28;20041;-78
2021/03/24 12:06:17;;;;;;;23.88;12.90;;;15.80;52.60;;;;;;5028733;28;20033;-79
2021/03/24 12:08:48;;;;;;;25.13;12.82;;;15.80;52.90;;;;;;5046646;28;20032;-79
2021/03/24 12:11:14;;;;;;;22.95;12.15;;;15.70;52.90;;;;;;5030350;28;20033;-75
2021/03/24 12:13:40;;;;;;;23.92;13.70;;;15.80;52.80;;;;;;5049734;28;20056;-79
2021/03/24 12:16:11;;;;;;;21.10;12.48;;;17.00;53.20;;;;;;5035687;28;20022;-77
2021/03/24 12:18:50;;;;;;;21.98;12.50;;;15.90;51.60;;;;;;5028308;28;20124;-76
2021/03/24 12:21:27;;;;;;;21.05;12.35;;;16.00;52.40;;;;;;5020254;28;20021;-79
2021/03/24 12:23:56;;;;;;;22.52;13.05;;;16.10;53.10;;;;;;5036532;28;20037;-79
2021/03/24 12:26:25;;;;;;;23.17;12.77;;;13.50;49.90;;;;;;5022851;28;20502;-78
2021/03/24 12:28:55;;;;;;;21.02;12.32;;;16.20;51.60;;;;;;5026923;28;20034;-78
2021/03/24 12:31:22;;;;;;;19.95;11.75;;;16.30;51.50;;;;;;5042972;28;20399;-76
2021/03/24 12:33:58;;;;;;;22.13;11.70;;;16.30;51.30;;;;;;5029688;28;20029;-79
2021/03/24 12:36:27;;;;;;;18.52;10.85;;;16.20;50.20;;;;;;5027017;28;20026;-79
2021/03/24 12:39:06;;;;;;;23.23;12.45;;;16.30;50.90;;;;;;5019462;28;20029;-78
2021/03/24 12:41:36;;;;;;;23.17;12.95;;;16.20;50.80;;;;;;5008588;28;20053;-79
2021/03/24 12:44:21;;;;;;;23.00;12.23;;;16.10;51.60;;;;;;5024833;28;20026;-76
2021/03/24 12:47:28;;;;;;;22.08;11.18;;;16.20;50.20;;;;;;5025395;28;20030;-78
2021/03/24 12:50:25;;;;;;;18.80;10.27;;;16.20;50.40;;;;;;5023430;28;20036;-81
2021/03/24 12:53:04;;;;;;;17.98;10.90;;;16.30;50.10;;;;;;5025718;28;20051;-79
2021/03/24 12:55:34;;;;;;;18.73;10.27;;;16.20;49.80;;;;;;5039271;28;20138;-78
2021/03/24 12:58:17;;;;;;;18.35;10.73;;;16.40;50.50;;;;;;5022883;28;20076;-77
2021/03/24 13:01:15;;;;;;;20.75;10.80;;;16.50;49.50;;;;;;5026303;28;20100;-79
2021/03/24 13:04:18;;;;;;;17.60;9.32;;;16.20;50.30;;;;;;5026407;28;20147;-81
2021/03/24 13:07:03;;;;;;;18.40;10.10;;;16.40;50.00;;;;;;5037931;28;20032;-78
2021/03/24 13:10:01;;;;;;;19.00;9.70;;;16.20;49.60;;;;;;5020118;28;20045;-78
2021/03/24 13:12:38;;;;;;;17.25;9.45;;;16.50;50.60;;;;;;5017325;28;20030;-78
2021/03/24 13:15:14;;;;;;;17.58;9.32;;;16.70;49.20;;;;;;5036000;28;20042;-81
2021/03/24 13:18:10;;;;;;;17.30;9.38;;;16.70;48.30;;;;;;5033835;28;20042;-78
2021/03/24 13:20:48;;;;;;;18.70;9.63;;;16.60;47.80;;;;;;5022695;28;20399;-78
2021/03/24 13:23:26;;;;;;;16.52;10.13;;;16.60;47.90;;;;;;5024189;28;20036;-78
2021/03/24 13:26:01;;;;;;;17.85;9.68;;;16.70;47.90;;;;;;5022820;28;20508;-80
2021/03/24 13:28:30;;;;;;;15.85;9.07;;;16.70;47.80;;;;;;5022593;28;20072;-80
2021/03/24 13:31:17;;;;;;;16.38;9.07;;;16.70;47.70;;;;;;5019473;28;20399;-78
2021/03/24 13:34:04;;;;;;;16.52;8.95;;;17.00;48.60;;;;;;5038050;28;20025;-79